Time;durP1;ratioP1;P1;durP2;ratioP2;P2;SDS_P1;SDS_P2;PMS_P1;PMS_P2;Temp;Humidity;BMP_temperature;BMP_pressure;BME280_temperature;BME280_humidity;BME280_pressure;Samples;Min_cycle;Max_cycle;Signal;HPM_P1;HPM_P2
2023/09/08 00:01:58;;;;;;;10.70;6.60;;;;;;;;;;5049838;28;20056;-46
2023/09/08 00:04:23;;;;;;;9.67;6.93;;;;;;;;;;5058552;28;20294;-46
2023/09/08 00:06:49;;;;;;;11.65;7.82;;;;;;;;;;5053710;28;20631;-46
2023/09/08 00:09:14;;;;;;;14.60;7.32;;;;;;;;;;5051790;28;20112;-46
2023/09/08 00:11:39;;;;;;;13.57;6.67;;;;;;;;;;5054187;28;20017;-46
2023/09/08 00:14:05;;;;;;;12.50;6.67;;;;;;;;;;5050665;28;20275;-46
2023/09/08 00:16:30;;;;;;;12.30;6.25;;;;;;;;;;5058013;28;20278;-46
2023/09/08 00:18:56;;;;;;;15.57;8.00;;;;;;;;;;5056946;28;20024;-46
2023/09/08 00:21:22;;;;;;;13.20;7.22;;;;;;;;;;5054795;28;20670;-46
2023/09/08 00:23:47;;;;;;;12.77;7.13;;;;;;;;;;5057088;28;20475;-46
2023/09/08 00:26:12;;;;;;;12.50;7.37;;;;;;;;;;5054522;28;20060;-46
2023/09/08 00:28:38;;;;;;;10.13;6.37;;;;;;;;;;5056813;28;21175;-46
2023/09/08 00:31:04;;;;;;;15.00;7.27;;;;;;;;;;5058227;28;20070;-46
2023/09/08 00:33:30;;;;;;;12.70;6.97;;;;;;;;;;5056802;28;20287;-46
2023/09/08 00:35:57;;;;;;;9.77;6.57;;;;;;;;;;5051622;28;20040;-46
2023/09/08 00:38:23;;;;;;;9.55;6.50;;;;;;;;;;5053763;28;20025;-46
2023/09/08 00:40:48;;;;;;;10.75;6.70;;;;;;;;;;5051044;28;20035;-46
2023/09/08 00:43:13;;;;;;;11.40;7.63;;;;;;;;;;5050396;28;20025;-46
2023/09/08 00:45:41;;;;;;;11.07;6.67;;;;;;;;;;5058365;28;20032;-46
2023/09/08 00:48:07;;;;;;;10.55;6.70;;;;;;;;;;5051192;28;20355;-46
2023/09/08 00:50:32;;;;;;;12.07;7.38;;;;;;;;;;5057101;28;20422;-46
2023/09/08 00:52:57;;;;;;;9.57;6.03;;;;;;;;;;5051738;28;20071;-46
2023/09/08 00:55:23;;;;;;;9.40;6.93;;;;;;;;;;5057691;28;20028;-46
2023/09/08 00:57:48;;;;;;;15.10;6.90;;;;;;;;;;5055277;28;20319;-46
2023/09/08 01:00:14;;;;;;;9.60;6.57;;;;;;;;;;5053972;28;20052;-46
2023/09/08 01:02:39;;;;;;;11.70;6.45;;;;;;;;;;5056999;28;20107;-46
2023/09/08 01:05:04;;;;;;;9.87;6.30;;;;;;;;;;5060573;28;20490;-46
2023/09/08 01:07:30;;;;;;;10.77;7.15;;;;;;;;;;5058307;28;20283;-46
2023/09/08 01:09:56;;;;;;;10.25;7.50;;;;;;;;;;5058717;28;20099;-46
2023/09/08 01:12:21;;;;;;;12.48;7.63;;;;;;;;;;5061408;28;20530;-46
2023/09/08 01:14:47;;;;;;;11.77;7.30;;;;;;;;;;5053338;28;20042;-46
2023/09/08 01:17:12;;;;;;;10.40;7.37;;;;;;;;;;5055516;28;20032;-46
2023/09/08 01:19:37;;;;;;;11.03;7.77;;;;;;;;;;5057915;28;20314;-46
2023/09/08 01:22:09;;;;;;;10.88;7.25;;;;;;;;;;5054842;28;20282;-46
2023/09/08 01:24:40;;;;;;;11.20;6.78;;;;;;;;;;5048730;28;20754;-46
2023/09/08 01:27:07;;;;;;;9.15;6.78;;;;;;;;;;5048326;28;20535;-46
2023/09/08 01:29:32;;;;;;;11.75;8.25;;;;;;;;;;5051754;28;20063;-46
2023/09/08 01:31:58;;;;;;;12.40;7.33;;;;;;;;;;5053167;28;21205;-46
2023/09/08 01:34:23;;;;;;;12.30;7.30;;;;;;;;;;5053336;28;20275;-46
2023/09/08 01:36:48;;;;;;;12.30;7.68;;;;;;;;;;5050824;28;20036;-46
2023/09/08 01:39:14;;;;;;;11.02;8.07;;;;;;;;;;5047727;28;20040;-46
2023/09/08 01:41:39;;;;;;;12.93;7.47;;;;;;;;;;5051743;28;20027;-46
2023/09/08 01:44:07;;;;;;;12.03;7.20;;;;;;;;;;5052458;28;20645;-46
2023/09/08 01:46:33;;;;;;;11.93;7.55;;;;;;;;;;5050125;28;20357;-46
2023/09/08 01:48:58;;;;;;;12.07;6.75;;;;;;;;;;5052808;28;20055;-46
2023/09/08 01:51:24;;;;;;;12.05;7.25;;;;;;;;;;5055670;28;20108;-46
2023/09/08 01:53:49;;;;;;;10.50;7.45;;;;;;;;;;5048513;28;20094;-46
2023/09/08 01:56:14;;;;;;;11.60;7.60;;;;;;;;;;5050811;28;20029;-46
2023/09/08 01:58:39;;;;;;;10.17;7.70;;;;;;;;;;5051031;28;20776;-46
2023/09/08 02:01:05;;;;;;;11.43;7.80;;;;;;;;;;5054553;28;20316;-46
2023/09/08 02:03:31;;;;;;;10.30;7.90;;;;;;;;;;5050672;28;20875;-46
2023/09/08 02:05:56;;;;;;;16.00;10.23;;;;;;;;;;5052012;28;20024;-46
2023/09/08 02:08:22;;;;;;;11.93;8.40;;;;;;;;;;5049532;28;20043;-47
2023/09/08 02:10:47;;;;;;;18.03;8.10;;;;;;;;;;5049549;28;20271;-46
2023/09/08 02:13:12;;;;;;;13.80;7.53;;;;;;;;;;5052059;28;20319;-46
2023/09/08 02:15:37;;;;;;;14.17;7.77;;;;;;;;;;5048552;28;20364;-45
2023/09/08 02:18:03;;;;;;;12.30;7.97;;;;;;;;;;5052109;28;20330;-46
2023/09/08 02:20:28;;;;;;;17.23;8.02;;;;;;;;;;5048694;28;20274;-46
2023/09/08 02:22:54;;;;;;;12.23;8.13;;;;;;;;;;5054212;28;20498;-46
2023/09/08 02:25:20;;;;;;;10.85;8.05;;;;;;;;;;5052983;28;20279;-46
2023/09/08 02:27:45;;;;;;;10.68;7.15;;;;;;;;;;5058027;28;20031;-46
2023/09/08 02:30:10;;;;;;;9.97;5.60;;;;;;;;;;5054788;28;20027;-46
2023/09/08 02:32:36;;;;;;;10.00;7.90;;;;;;;;;;5050344;28;20293;-46
2023/09/08 02:35:01;;;;;;;9.60;7.10;;;;;;;;;;5053255;28;20104;-46
2023/09/08 02:37:26;;;;;;;12.00;8.60;;;;;;;;;;5056152;28;20345;-46
2023/09/08 02:39:51;;;;;;;11.97;8.50;;;;;;;;;;5053844;28;20272;-46
2023/09/08 02:42:17;;;;;;;17.07;7.77;;;;;;;;;;5050005;28;20287;-46
2023/09/08 02:44:43;;;;;;;12.53;8.60;;;;;;;;;;5053991;28;20777;-46
2023/09/08 02:47:09;;;;;;;13.63;8.57;;;;;;;;;;5051561;28;20031;-46
2023/09/08 02:49:35;;;;;;;29.38;11.30;;;;;;;;;;5052702;28;20364;-46
2023/09/08 02:52:00;;;;;;;15.87;9.13;;;;;;;;;;5052935;28;20475;-46
2023/09/08 02:54:25;;;;;;;15.20;8.13;;;;;;;;;;5050155;28;20305;-46
2023/09/08 02:56:51;;;;;;;13.25;8.35;;;;;;;;;;5049096;28;20838;-46
2023/09/08 02:59:16;;;;;;;14.10;8.82;;;;;;;;;;5052266;28;20054;-46
2023/09/08 03:01:42;;;;;;;12.80;8.80;;;;;;;;;;5057310;28;20075;-46
2023/09/08 03:04:08;;;;;;;14.27;8.48;;;;;;;;;;5053051;28;20557;-46
2023/09/08 03:06:34;;;;;;;14.70;9.25;;;;;;;;;;5059601;28;20029;-46
2023/09/08 03:08:59;;;;;;;13.40;9.07;;;;;;;;;;5060436;28;20215;-46
2023/09/08 03:11:24;;;;;;;17.50;8.80;;;;;;;;;;5059749;28;22313;-46
2023/09/08 03:13:50;;;;;;;18.77;9.63;;;;;;;;;;5059711;28;20505;-46
2023/09/08 03:16:15;;;;;;;13.80;7.75;;;;;;;;;;5061315;28;20283;-46
2023/09/08 03:18:41;;;;;;;13.43;8.90;;;;;;;;;;5057525;28;20036;-46
2023/09/08 03:21:09;;;;;;;15.38;9.20;;;;;;;;;;5053315;28;20362;-46
2023/09/08 03:23:35;;;;;;;18.80;9.52;;;;;;;;;;5053040;28;20128;-46
2023/09/08 03:26:01;;;;;;;14.45;9.48;;;;;;;;;;5059229;28;20017;-46
2023/09/08 03:28:26;;;;;;;16.33;9.70;;;;;;;;;;5058203;28;20024;-45
2023/09/08 03:30:51;;;;;;;17.50;11.53;;;;;;;;;;5054093;28;20680;-46
2023/09/08 03:33:16;;;;;;;18.77;11.93;;;;;;;;;;5055739;28;20299;-46
2023/09/08 03:35:42;;;;;;;19.85;10.77;;;;;;;;;;5053974;28;20962;-46
2023/09/08 03:38:07;;;;;;;15.45;10.30;;;;;;;;;;5056279;28;20037;-46
2023/09/08 03:40:32;;;;;;;28.87;17.40;;;;;;;;;;5055792;28;20028;-46
2023/09/08 03:42:58;;;;;;;16.50;10.60;;;;;;;;;;5051619;28;20322;-46
2023/09/08 03:45:23;;;;;;;13.23;9.73;;;;;;;;;;5053451;28;20282;-46
2023/09/08 03:47:48;;;;;;;13.85;8.50;;;;;;;;;;5058000;28;20270;-46
2023/09/08 03:50:14;;;;;;;11.63;8.47;;;;;;;;;;5056969;28;20075;-46
2023/09/08 03:52:39;;;;;;;15.40;9.35;;;;;;;;;;5052885;28;20783;-45
2023/09/08 03:55:05;;;;;;;14.20;9.10;;;;;;;;;;5053237;28;20040;-46
2023/09/08 03:57:30;;;;;;;12.20;9.30;;;;;;;;;;5056814;28;20382;-46
2023/09/08 03:59:55;;;;;;;13.57;8.97;;;;;;;;;;5053328;28;20041;-46
2023/09/08 04:02:21;;;;;;;13.30;9.27;;;;;;;;;;5054914;28;20314;-46
2023/09/08 04:04:46;;;;;;;14.60;10.33;;;;;;;;;;5055814;28;20267;-46
2023/09/08 04:07:11;;;;;;;17.63;9.90;;;;;;;;;;5054256;28;20041;-46
2023/09/08 04:09:37;;;;;;;15.00;9.90;;;;;;;;;;5054158;28;20441;-46
2023/09/08 04:12:02;;;;;;;14.07;9.63;;;;;;;;;;5057318;28;20290;-46
2023/09/08 04:14:28;;;;;;;15.20;9.77;;;;;;;;;;5048823;28;20653;-46
2023/09/08 04:16:53;;;;;;;17.15;9.38;;;;;;;;;;5054661;28;20047;-46
2023/09/08 04:19:19;;;;;;;15.10;9.43;;;;;;;;;;5060063;28;20073;-46
2023/09/08 04:21:44;;;;;;;16.83;10.73;;;;;;;;;;5054469;28;20081;-46
2023/09/08 04:24:10;;;;;;;15.30;10.27;;;;;;;;;;5051771;28;20402;-46
2023/09/08 04:26:36;;;;;;;13.25;9.68;;;;;;;;;;5050463;28;21311;-46
2023/09/08 04:29:01;;;;;;;15.43;10.05;;;;;;;;;;5053237;28;20021;-46
2023/09/08 04:31:26;;;;;;;16.60;10.63;;;;;;;;;;5048398;28;20029;-46
2023/09/08 04:33:53;;;;;;;16.00;10.13;;;;;;;;;;5045195;28;20275;-46
2023/09/08 04:36:18;;;;;;;23.30;10.13;;;;;;;;;;5057427;28;20381;-46
2023/09/08 04:38:44;;;;;;;17.43;11.37;;;;;;;;;;5052563;28;20131;-46
2023/09/08 04:41:09;;;;;;;12.13;8.95;;;;;;;;;;5050461;28;20848;-46
2023/09/08 04:43:35;;;;;;;16.08;10.23;;;;;;;;;;5042371;28;20037;-46
2023/09/08 04:46:02;;;;;;;16.03;10.57;;;;;;;;;;5051516;28;21409;-46
2023/09/08 04:48:28;;;;;;;16.48;10.60;;;;;;;;;;5055371;28;20270;-46
2023/09/08 04:50:53;;;;;;;15.10;10.10;;;;;;;;;;5061001;28;20509;-46
2023/09/08 04:53:18;;;;;;;15.02;9.90;;;;;;;;;;5056196;28;20024;-46
2023/09/08 04:55:43;;;;;;;12.57;9.57;;;;;;;;;;5054728;28;20035;-45
2023/09/08 04:58:09;;;;;;;19.55;10.57;;;;;;;;;;5061168;28;20772;-46
2023/09/08 05:00:34;;;;;;;14.20;9.18;;;;;;;;;;5059264;28;20521;-46
2023/09/08 05:02:59;;;;;;;18.13;10.05;;;;;;;;;;5057251;28;20025;-46
2023/09/08 05:05:25;;;;;;;15.70;10.47;;;;;;;;;;5054907;28;21107;-46
2023/09/08 05:07:53;;;;;;;16.20;10.27;;;;;;;;;;5058351;28;20362;-46
2023/09/08 05:10:19;;;;;;;17.17;10.38;;;;;;;;;;5053216;28;21020;-46
2023/09/08 05:12:44;;;;;;;15.35;9.80;;;;;;;;;;5054658;28;20041;-46
2023/09/08 05:15:14;;;;;;;13.52;9.75;;;;;;;;;;5054164;28;20039;-46
2023/09/08 05:17:40;;;;;;;16.65;10.57;;;;;;;;;;5056638;28;20025;-46
2023/09/08 05:20:05;;;;;;;13.80;11.35;;;;;;;;;;5064013;28;20044;-46
2023/09/08 05:22:31;;;;;;;16.00;10.65;;;;;;;;;;5058847;28;20052;-46
2023/09/08 05:24:56;;;;;;;20.85;11.88;;;;;;;;;;5056451;28;20044;-46
2023/09/08 05:27:21;;;;;;;21.80;14.63;;;;;;;;;;5058326;28;20044;-46
2023/09/08 05:29:47;;;;;;;22.92;13.45;;;;;;;;;;5052501;28;20028;-46
2023/09/08 05:32:12;;;;;;;18.13;13.13;;;;;;;;;;5057002;28;20021;-46
2023/09/08 05:34:37;;;;;;;19.87;12.43;;;;;;;;;;5053947;28;21809;-46
2023/09/08 05:37:02;;;;;;;22.20;12.17;;;;;;;;;;5055333;28;20283;-46
2023/09/08 05:39:28;;;;;;;15.93;11.13;;;;;;;;;;5049771;28;21345;-46
2023/09/08 05:41:53;;;;;;;25.90;14.77;;;;;;;;;;5058853;28;20044;-46
2023/09/08 05:44:18;;;;;;;27.20;16.93;;;;;;;;;;5048057;28;20078;-46
2023/09/08 05:46:44;;;;;;;18.73;12.07;;;;;;;;;;5051190;28;20270;-46
2023/09/08 05:49:09;;;;;;;19.38;11.95;;;;;;;;;;5058061;28;20033;-45
2023/09/08 05:51:35;;;;;;;16.95;11.45;;;;;;;;;;5057976;28;20029;-46
2023/09/08 05:54:00;;;;;;;15.57;11.23;;;;;;;;;;5054508;28;20028;-46
2023/09/08 05:56:34;;;;;;;24.47;15.23;;;;;;;;;;5061234;28;20024;-46
2023/09/08 05:59:01;;;;;;;15.65;11.32;;;;;;;;;;5063637;28;20340;-46
2023/09/08 06:01:26;;;;;;;18.05;11.70;;;;;;;;;;5061622;28;20048;-46
2023/09/08 06:03:52;;;;;;;18.17;9.88;;;;;;;;;;5060165;28;20056;-46
2023/09/08 06:06:17;;;;;;;24.95;12.45;;;;;;;;;;5063286;28;20087;-46
2023/09/08 06:08:42;;;;;;;16.53;10.40;;;;;;;;;;5060765;28;20029;-46
2023/09/08 06:11:07;;;;;;;31.27;20.07;;;;;;;;;;5058515;28;20803;-46
2023/09/08 06:13:33;;;;;;;62.22;38.88;;;;;;;;;;5055521;28;20282;-46
2023/09/08 06:15:58;;;;;;;33.42;20.67;;;;;;;;;;5058385;28;20017;-46
2023/09/08 06:18:23;;;;;;;26.48;15.82;;;;;;;;;;5052700;28;20494;-46
2023/09/08 06:20:49;;;;;;;22.63;12.87;;;;;;;;;;5052870;28;20093;-46
2023/09/08 06:23:14;;;;;;;18.95;11.38;;;;;;;;;;5059374;28;20289;-46
2023/09/08 06:25:40;;;;;;;16.58;10.32;;;;;;;;;;5056357;28;20112;-46
2023/09/08 06:28:05;;;;;;;20.17;11.10;;;;;;;;;;5059017;28;20021;-46
2023/09/08 06:30:30;;;;;;;20.70;11.90;;;;;;;;;;5057305;28;20620;-46
2023/09/08 06:32:56;;;;;;;24.13;15.75;;;;;;;;;;5055212;28;20179;-46
2023/09/08 06:35:21;;;;;;;33.37;20.63;;;;;;;;;;5054258;28;20040;-46
2023/09/08 06:37:46;;;;;;;28.77;19.25;;;;;;;;;;5050922;28;20052;-46
2023/09/08 06:40:11;;;;;;;20.53;13.90;;;;;;;;;;5053241;28;20438;-46
2023/09/08 06:42:37;;;;;;;15.03;10.93;;;;;;;;;;5058511;28;20275;-46
2023/09/08 06:45:02;;;;;;;18.40;11.07;;;;;;;;;;5060327;28;20067;-46
2023/09/08 06:47:27;;;;;;;19.42;11.30;;;;;;;;;;5055744;28;20032;-46
2023/09/08 06:49:53;;;;;;;22.37;12.33;;;;;;;;;;5057620;28;20115;-46
2023/09/08 06:52:18;;;;;;;15.52;10.40;;;;;;;;;;5063917;28;20275;-46
2023/09/08 06:54:45;;;;;;;14.50;10.57;;;;;;;;;;5060344;28;20029;-46
2023/09/08 06:57:11;;;;;;;17.23;11.18;;;;;;;;;;5060651;28;20060;-45
2023/09/08 06:59:36;;;;;;;22.17;13.60;;;;;;;;;;5063011;28;20055;-46
2023/09/08 07:02:01;;;;;;;18.50;12.20;;;;;;;;;;5060704;28;20486;-46
2023/09/08 07:04:26;;;;;;;17.37;10.83;;;;;;;;;;5063066;28;20036;-46
2023/09/08 07:06:54;;;;;;;16.47;9.97;;;;;;;;;;5066749;28;20115;-46
2023/09/08 07:09:19;;;;;;;19.02;11.88;;;;;;;;;;5065885;28;20020;-46
2023/09/08 07:11:45;;;;;;;24.83;17.55;;;;;;;;;;5061603;28;20047;-46
2023/09/08 07:14:10;;;;;;;21.67;13.60;;;;;;;;;;5059738;28;20029;-46
2023/09/08 07:16:35;;;;;;;19.95;11.65;;;;;;;;;;5062762;28;20574;-46
2023/09/08 07:19:01;;;;;;;16.97;9.73;;;;;;;;;;5062774;28;20730;-46
2023/09/08 07:21:26;;;;;;;14.35;9.00;;;;;;;;;;5060520;28;20036;-46
2023/09/08 07:23:52;;;;;;;13.93;10.15;;;;;;;;;;5056881;28;20023;-46
2023/09/08 07:26:17;;;;;;;13.20;8.88;;;;;;;;;;5057745;28;20499;-46
2023/09/08 07:28:43;;;;;;;13.80;8.83;;;;;;;;;;5060090;28;20103;-46
2023/09/08 07:31:09;;;;;;;19.43;10.30;;;;;;;;;;5050331;28;20289;-46
2023/09/08 07:33:34;;;;;;;24.95;14.85;;;;;;;;;;5055023;28;20085;-46
2023/09/08 07:36:04;;;;;;;17.88;10.18;;;;;;;;;;5053736;28;20040;-46
2023/09/08 07:38:29;;;;;;;26.92;15.60;;;;;;;;;;5048053;28;20036;-46
2023/09/08 07:40:54;;;;;;;25.23;14.60;;;;;;;;;;5055886;28;20032;-46
2023/09/08 07:43:19;;;;;;;17.77;11.83;;;;;;;;;;5055966;28;20035;-46
2023/09/08 07:45:45;;;;;;;15.60;9.50;;;;;;;;;;5057066;28;20029;-46
2023/09/08 07:48:10;;;;;;;14.05;8.18;;;;;;;;;;5056892;28;20439;-46
2023/09/08 07:50:36;;;;;;;13.40;8.57;;;;;;;;;;5058052;28;20093;-46
2023/09/08 07:53:01;;;;;;;11.68;8.35;;;;;;;;;;5060801;28;20028;-46
2023/09/08 07:55:29;;;;;;;12.68;8.18;;;;;;;;;;5055467;28;20686;-46
2023/09/08 07:57:55;;;;;;;21.05;9.95;;;;;;;;;;5060557;28;20064;-46
2023/09/08 08:00:20;;;;;;;16.02;9.18;;;;;;;;;;5057600;28;20065;-46
2023/09/08 08:02:47;;;;;;;17.98;9.23;;;;;;;;;;5058286;28;20032;-46
2023/09/08 08:05:13;;;;;;;16.08;8.13;;;;;;;;;;5058634;28;20037;-46
2023/09/08 08:07:39;;;;;;;12.07;8.47;;;;;;;;;;5063624;28;20071;-45
2023/09/08 08:10:05;;;;;;;15.55;8.52;;;;;;;;;;5057591;28;20509;-46
2023/09/08 08:12:30;;;;;;;17.58;9.63;;;;;;;;;;5059401;28;20025;-46
2023/09/08 08:14:55;;;;;;;11.73;7.00;;;;;;;;;;5059517;28;20383;-46
2023/09/08 08:17:21;;;;;;;11.63;7.93;;;;;;;;;;5056865;28;20510;-46
2023/09/08 08:19:47;;;;;;;13.18;8.45;;;;;;;;;;5059960;28;20024;-46
2023/09/08 08:22:12;;;;;;;11.38;7.63;;;;;;;;;;5056371;28;20102;-46
2023/09/08 08:24:37;;;;;;;14.83;8.47;;;;;;;;;;5055127;28;20162;-46
2023/09/08 08:27:03;;;;;;;16.30;11.07;;;;;;;;;;5053069;28;20283;-46
2023/09/08 08:29:28;;;;;;;17.70;11.30;;;;;;;;;;5051303;28;20056;-46
2023/09/08 08:31:53;;;;;;;13.43;9.88;;;;;;;;;;5057133;28;20028;-46
2023/09/08 08:34:19;;;;;;;13.13;8.43;;;;;;;;;;5056929;28;20042;-46
2023/09/08 08:36:44;;;;;;;14.27;7.43;;;;;;;;;;5053487;28;20099;-46
2023/09/08 08:39:09;;;;;;;12.55;8.23;;;;;;;;;;5058100;28;20517;-46
2023/09/08 08:41:37;;;;;;;12.60;7.50;;;;;;;;;;5052880;28;23420;-46
2023/09/08 08:44:03;;;;;;;12.75;7.22;;;;;;;;;;5053812;28;20056;-46
2023/09/08 08:46:29;;;;;;;12.50;6.93;;;;;;;;;;5058849;28;20135;-46
2023/09/08 08:48:55;;;;;;;15.15;7.20;;;;;;;;;;5053092;28;20430;-46
2023/09/08 08:51:22;;;;;;;14.57;7.60;;;;;;;;;;5060938;28;20059;-46
2023/09/08 08:53:48;;;;;;;10.13;7.00;;;;;;;;;;5061609;28;20052;-46
2023/09/08 08:56:13;;;;;;;17.63;6.37;;;;;;;;;;5064522;28;20075;-46
2023/09/08 08:58:39;;;;;;;11.05;6.45;;;;;;;;;;5061399;28;20113;-46
2023/09/08 09:01:05;;;;;;;11.25;7.22;;;;;;;;;;5065667;28;20461;-46
2023/09/08 09:03:31;;;;;;;9.82;6.75;;;;;;;;;;5058610;28;20479;-46
2023/09/08 09:05:56;;;;;;;12.90;7.00;;;;;;;;;;5066516;28;20051;-46
2023/09/08 09:08:23;;;;;;;13.95;6.95;;;;;;;;;;5057058;28;20017;-46
2023/09/08 09:10:48;;;;;;;12.73;7.13;;;;;;;;;;5061187;28;20036;-46
2023/09/08 09:13:14;;;;;;;12.10;6.95;;;;;;;;;;5063173;28;20531;-46
2023/09/08 09:15:40;;;;;;;9.27;5.97;;;;;;;;;;5069006;28;20016;-46
2023/09/08 09:18:06;;;;;;;12.27;6.32;;;;;;;;;;5062820;28;20391;-46
2023/09/08 09:20:31;;;;;;;12.93;6.55;;;;;;;;;;5060624;28;20033;-46
2023/09/08 09:22:56;;;;;;;11.98;5.78;;;;;;;;;;5062449;28;20052;-46
2023/09/08 09:25:23;;;;;;;15.97;8.40;;;;;;;;;;5063330;28;20104;-46
2023/09/08 09:27:55;;;;;;;10.93;6.10;;;;;;;;;;5055103;28;20306;-46
2023/09/08 09:30:21;;;;;;;9.60;5.35;;;;;;;;;;5058364;28;20062;-46
2023/09/08 09:32:49;;;;;;;9.80;7.05;;;;;;;;;;5063026;28;20024;-46
2023/09/08 09:35:14;;;;;;;9.80;5.65;;;;;;;;;;5062891;28;20418;-46
2023/09/08 09:37:40;;;;;;;9.07;5.40;;;;;;;;;;5062975;28;20601;-46
2023/09/08 09:40:07;;;;;;;10.43;6.82;;;;;;;;;;5066082;28;20450;-46
2023/09/08 09:42:33;;;;;;;11.52;6.18;;;;;;;;;;5060433;28;20086;-46
2023/09/08 09:45:00;;;;;;;5.70;3.78;;;;;;;;;;5058810;28;20429;-46
2023/09/08 09:47:26;;;;;;;7.25;4.82;;;;;;;;;;5059140;28;20082;-46
2023/09/08 09:49:51;;;;;;;9.07;4.72;;;;;;;;;;5060796;28;20028;-46
2023/09/08 09:52:22;;;;;;;10.90;5.20;;;;;;;;;;5061030;28;20078;-46
2023/09/08 09:54:47;;;;;;;8.15;5.53;;;;;;;;;;5059749;28;20035;-46
2023/09/08 09:57:13;;;;;;;9.35;5.57;;;;;;;;;;5063161;28;20029;-46
2023/09/08 09:59:40;;;;;;;7.95;4.68;;;;;;;;;;5065231;28;20041;-46
2023/09/08 10:02:08;;;;;;;11.23;5.03;;;;;;;;;;5065507;28;20028;-46
2023/09/08 10:04:33;;;;;;;9.55;5.10;;;;;;;;;;5056078;28;20075;-46
2023/09/08 10:06:59;;;;;;;8.85;5.10;;;;;;;;;;5061083;28;20032;-46
2023/09/08 10:09:24;;;;;;;10.25;5.68;;;;;;;;;;5055242;28;20048;-46
2023/09/08 10:11:51;;;;;;;16.50;5.57;;;;;;;;;;5059754;28;20437;-46
2023/09/08 10:14:17;;;;;;;6.90;4.88;;;;;;;;;;5060851;28;20791;-46
2023/09/08 10:16:43;;;;;;;7.72;5.18;;;;;;;;;;5066078;28;20484;-46
2023/09/08 10:19:09;;;;;;;13.02;5.30;;;;;;;;;;5063356;28;20047;-46
2023/09/08 10:21:40;;;;;;;8.38;5.47;;;;;;;;;;5064411;28;21001;-46
2023/09/08 10:24:15;;;;;;;8.73;5.30;;;;;;;;;;5068048;28;20126;-46
2023/09/08 10:26:43;;;;;;;8.68;5.32;;;;;;;;;;5060035;28;20374;-46
2023/09/08 10:29:09;;;;;;;8.05;5.03;;;;;;;;;;5061761;28;20029;-46
2023/09/08 10:31:34;;;;;;;10.73;5.32;;;;;;;;;;5063559;28;20020;-46
2023/09/08 10:34:00;;;;;;;12.43;5.53;;;;;;;;;;5067307;28;20043;-46
2023/09/08 10:36:26;;;;;;;11.43;5.43;;;;;;;;;;5059257;28;20079;-46
2023/09/08 10:38:54;;;;;;;9.05;5.20;;;;;;;;;;5062825;28;20024;-46
2023/09/08 10:41:26;;;;;;;6.78;4.43;;;;;;;;;;5062389;28;20553;-46
2023/09/08 10:44:00;;;;;;;9.82;5.57;;;;;;;;;;5061899;28;20591;-46
2023/09/08 10:46:27;;;;;;;9.50;5.18;;;;;;;;;;5057554;28;20029;-46
2023/09/08 10:49:02;;;;;;;12.13;4.95;;;;;;;;;;5063401;28;20033;-46
2023/09/08 10:51:27;;;;;;;8.02;5.28;;;;;;;;;;5076178;28;20056;-46
2023/09/08 10:53:52;;;;;;;8.43;5.03;;;;;;;;;;5058500;28;20049;-46
2023/09/08 10:56:21;;;;;;;11.60;5.50;;;;;;;;;;5062275;28;20273;-46
2023/09/08 10:58:50;;;;;;;14.68;9.02;;;;;;;;;;5064622;28;20270;-46
2023/09/08 11:01:16;;;;;;;9.32;6.18;;;;;;;;;;5065519;28;20037;-46
2023/09/08 11:03:41;;;;;;;8.63;5.32;;;;;;;;;;5063158;28;20021;-46
2023/09/08 11:06:07;;;;;;;8.30;4.13;;;;;;;;;;5071787;28;20028;-46
2023/09/08 11:08:33;;;;;;;8.07;4.55;;;;;;;;;;5054988;28;20031;-46
2023/09/08 11:10:59;;;;;;;12.15;5.35;;;;;;;;;;5063005;28;20048;-46
2023/09/08 11:13:25;;;;;;;6.68;4.90;;;;;;;;;;5059899;28;20055;-46
2023/09/08 11:15:53;;;;;;;8.20;4.20;;;;;;;;;;5053216;28;20117;-46
2023/09/08 11:18:27;;;;;;;8.00;4.63;;;;;;;;;;5053974;28;20024;-46
2023/09/08 11:20:53;;;;;;;9.50;5.22;;;;;;;;;;5060613;28;20062;-46
2023/09/08 11:23:18;;;;;;;8.55;4.32;;;;;;;;;;5065098;28;20025;-46
2023/09/08 11:25:44;;;;;;;7.45;4.35;;;;;;;;;;5059877;28;20048;-46
2023/09/08 11:28:09;;;;;;;10.18;3.95;;;;;;;;;;5063686;28;20051;-46
2023/09/08 11:30:35;;;;;;;6.93;4.20;;;;;;;;;;5067367;28;20029;-46
2023/09/08 11:33:01;;;;;;;7.57;4.38;;;;;;;;;;5062775;28;20032;-46
2023/09/08 11:35:27;;;;;;;7.63;4.35;;;;;;;;;;5056619;28;20039;-46
2023/09/08 11:37:53;;;;;;;6.47;4.28;;;;;;;;;;5049810;28;20021;-46
2023/09/08 11:40:19;;;;;;;9.85;5.35;;;;;;;;;;5060410;28;20436;-46
2023/09/08 11:42:45;;;;;;;8.20;4.57;;;;;;;;;;5053247;28;20165;-46
2023/09/08 11:45:14;;;;;;;10.93;4.70;;;;;;;;;;5057771;28;20040;-46
2023/09/08 11:47:43;;;;;;;7.57;4.10;;;;;;;;;;5056246;28;20036;-46
2023/09/08 11:50:11;;;;;;;8.98;4.88;;;;;;;;;;5061294;28;20321;-46
2023/09/08 11:52:36;;;;;;;7.32;4.45;;;;;;;;;;5062815;28;20044;-46
2023/09/08 11:55:02;;;;;;;6.35;4.18;;;;;;;;;;5064187;28;20059;-46
2023/09/08 11:57:28;;;;;;;10.57;4.75;;;;;;;;;;5065072;28;20032;-46
2023/09/08 11:59:53;;;;;;;7.85;4.00;;;;;;;;;;5062475;28;20032;-46
2023/09/08 12:02:18;;;;;;;8.60;5.43;;;;;;;;;;5066824;28;20463;-46
2023/09/08 12:04:44;;;;;;;7.78;4.88;;;;;;;;;;5063918;28;20039;-46
2023/09/08 12:07:15;;;;;;;13.93;4.28;;;;;;;;;;5062868;28;20028;-46
2023/09/08 12:09:40;;;;;;;7.82;4.68;;;;;;;;;;5063944;28;20070;-46
2023/09/08 12:12:10;;;;;;;9.35;4.47;;;;;;;;;;5060329;28;20024;-46
2023/09/08 12:14:40;;;;;;;9.00;4.40;;;;;;;;;;5062951;28;20028;-46
2023/09/08 12:17:07;;;;;;;11.63;4.70;;;;;;;;;;5064054;28;20438;-46
2023/09/08 12:19:33;;;;;;;9.73;4.65;;;;;;;;;;5066404;28;20484;-46
2023/09/08 12:22:02;;;;;;;7.78;4.15;;;;;;;;;;5062814;28;20032;-46
2023/09/08 12:24:46;;;;;;;7.97;4.90;;;;;;;;;;5058220;28;20039;-46
2023/09/08 12:27:11;;;;;;;14.38;4.85;;;;;;;;;;5060183;28;20023;-46
2023/09/08 12:29:36;;;;;;;9.67;5.33;;;;;;;;;;5060989;28;20021;-46
2023/09/08 12:32:02;;;;;;;9.60;5.50;;;;;;;;;;5073641;28;20524;-46
2023/09/08 12:34:27;;;;;;;9.77;5.20;;;;;;;;;;5059889;28;20021;-46
2023/09/08 12:36:55;;;;;;;10.87;5.13;;;;;;;;;;5064244;28;20035;-46
2023/09/08 12:39:20;;;;;;;10.45;5.20;;;;;;;;;;5062191;28;20029;-46
2023/09/08 12:41:45;;;;;;;7.57;5.47;;;;;;;;;;5061081;28;20086;-46
2023/09/08 12:44:10;;;;;;;8.63;4.50;;;;;;;;;;5053827;28;20028;-46
2023/09/08 12:46:36;;;;;;;10.27;4.45;;;;;;;;;;5058900;28;20691;-46
2023/09/08 12:49:01;;;;;;;8.73;3.47;;;;;;;;;;5064578;28;20039;-47
2023/09/08 12:51:26;;;;;;;9.30;5.00;;;;;;;;;;5058240;28;20013;-46
2023/09/08 12:53:52;;;;;;;10.90;4.57;;;;;;;;;;5057644;28;20082;-46
2023/09/08 12:56:18;;;;;;;7.37;4.80;;;;;;;;;;5066742;28;20059;-46
2023/09/08 12:58:43;;;;;;;12.02;4.97;;;;;;;;;;5066693;28;20016;-46
2023/09/08 13:01:08;;;;;;;7.93;5.37;;;;;;;;;;5063659;28;20382;-46
2023/09/08 13:03:33;;;;;;;12.50;4.90;;;;;;;;;;5055609;28;20187;-46
2023/09/08 13:05:59;;;;;;;11.47;6.23;;;;;;;;;;5060336;28;20446;-46
2023/09/08 13:08:24;;;;;;;8.37;5.73;;;;;;;;;;5057870;28;20029;-46
2023/09/08 13:10:49;;;;;;;8.67;5.23;;;;;;;;;;5058625;28;20012;-46
2023/09/08 13:13:14;;;;;;;14.70;8.50;;;;;;;;;;5067556;28;20490;-46
2023/09/08 13:15:40;;;;;;;10.07;7.27;;;;;;;;;;5061207;28;20271;-46
2023/09/08 13:18:05;;;;;;;12.20;6.67;;;;;;;;;;5067627;28;20360;-46
2023/09/08 13:20:30;;;;;;;11.52;5.35;;;;;;;;;;5064015;28;20033;-46
2023/09/08 13:22:55;;;;;;;11.90;5.47;;;;;;;;;;5062629;28;20035;-46
2023/09/08 13:25:21;;;;;;;10.97;6.00;;;;;;;;;;5058109;28;20489;-46
2023/09/08 13:27:47;;;;;;;9.63;6.10;;;;;;;;;;5062320;28;20085;-46
2023/09/08 13:30:13;;;;;;;14.85;7.32;;;;;;;;;;5066156;28;20282;-46
2023/09/08 13:32:39;;;;;;;14.23;8.43;;;;;;;;;;5058835;28;20057;-46
2023/09/08 13:35:05;;;;;;;12.95;6.88;;;;;;;;;;5061732;28;20048;-46
2023/09/08 13:37:30;;;;;;;10.68;6.15;;;;;;;;;;5064841;28;20020;-46
2023/09/08 13:39:56;;;;;;;5.65;3.38;;;;;;;;;;5057051;28;20086;-46
2023/09/08 13:42:21;;;;;;;8.25;5.32;;;;;;;;;;5059829;28;20024;-46
2023/09/08 13:44:46;;;;;;;8.98;5.07;;;;;;;;;;5062050;28;20048;-46
2023/09/08 13:47:12;;;;;;;11.47;5.43;;;;;;;;;;5068615;28;20558;-46
2023/09/08 13:49:37;;;;;;;5.30;3.13;;;;;;;;;;5055732;28;20262;-46
2023/09/08 13:52:02;;;;;;;10.53;4.70;;;;;;;;;;5056534;28;20494;-46
2023/09/08 13:54:28;;;;;;;7.57;4.90;;;;;;;;;;5054311;28;20033;-46
2023/09/08 13:57:00;;;;;;;17.00;5.13;;;;;;;;;;5064584;28;20037;-46
2023/09/08 13:59:25;;;;;;;7.45;5.13;;;;;;;;;;5066074;28;20029;-46
2023/09/08 14:01:50;;;;;;;7.20;4.75;;;;;;;;;;5062806;28;20017;-46
2023/09/08 14:04:16;;;;;;;9.80;5.20;;;;;;;;;;5063867;28;20032;-46
2023/09/08 14:06:41;;;;;;;10.87;6.80;;;;;;;;;;5061567;28;20059;-46
2023/09/08 14:09:07;;;;;;;14.60;8.50;;;;;;;;;;5054567;28;20036;-46
2023/09/08 14:11:32;;;;;;;11.73;5.53;;;;;;;;;;5060197;28;20032;-46
2023/09/08 14:13:57;;;;;;;9.10;5.50;;;;;;;;;;5066870;28;20318;-46
2023/09/08 14:16:22;;;;;;;7.33;4.50;;;;;;;;;;5050010;28;20051;-46
2023/09/08 14:18:48;;;;;;;7.30;4.30;;;;;;;;;;5063127;28;20013;-46
2023/09/08 14:21:13;;;;;;;8.95;4.63;;;;;;;;;;5064056;28;20062;-46
2023/09/08 14:23:39;;;;;;;6.72;3.80;;;;;;;;;;5060527;28;20012;-46